createdAt,value
2022-11-23T00:00:19.149Z,8.01
2022-11-23T00:01:19.183Z,8.00
2022-11-23T00:02:19.167Z,8.01
2022-11-23T00:03:19.099Z,8.00
2022-11-23T00:04:19.114Z,8.03
2022-11-23T00:05:19.076Z,8.03
2022-11-23T00:06:19.097Z,8.01
2022-11-23T00:07:19.120Z,8.13
2022-11-23T00:08:19.069Z,8.16
2022-11-23T00:09:19.045Z,8.19
2022-11-23T00:10:19.044Z,8.20
2022-11-23T00:11:19.030Z,8.19
2022-11-23T00:12:19.058Z,8.20
2022-11-23T00:13:18.993Z,8.18
2022-11-23T00:14:19.010Z,8.19
2022-11-23T00:15:18.968Z,8.19
2022-11-23T00:16:18.984Z,8.20
2022-11-23T00:17:18.944Z,8.20
2022-11-23T00:18:18.995Z,8.20
2022-11-23T00:19:18.933Z,8.24
2022-11-23T00:20:18.942Z,8.27
2022-11-23T00:21:18.916Z,8.27
2022-11-23T00:22:18.925Z,8.24
2022-11-23T00:23:18.902Z,8.26
2022-11-23T00:24:18.906Z,8.27
2022-11-23T00:25:18.937Z,8.23
2022-11-23T00:26:18.895Z,8.19
2022-11-23T00:27:18.842Z,8.24
2022-11-23T00:28:18.868Z,8.27
2022-11-23T00:29:18.834Z,8.24
2022-11-23T00:30:18.836Z,8.27
2022-11-23T00:31:18.809Z,8.26
2022-11-23T00:32:18.808Z,8.28
2022-11-23T00:33:18.789Z,8.28
2022-11-23T00:34:18.819Z,8.28
2022-11-23T00:35:18.789Z,8.31
2022-11-23T00:36:18.770Z,8.36
2022-11-23T00:37:18.742Z,8.36
2022-11-23T00:38:18.748Z,8.36
2022-11-23T00:39:18.719Z,8.34
2022-11-23T00:40:18.742Z,8.36
2022-11-23T00:41:18.717Z,8.34
2022-11-23T00:42:18.708Z,8.36
2022-11-23T00:43:18.676Z,8.36
2022-11-23T00:44:18.713Z,8.36
2022-11-23T00:45:18.759Z,8.33
2022-11-23T00:46:18.664Z,8.31
2022-11-23T00:47:18.642Z,8.31
2022-11-23T00:48:18.644Z,8.33
2022-11-23T00:49:18.611Z,8.33
2022-11-23T00:50:18.619Z,8.30
2022-11-23T00:51:18.615Z,8.26
2022-11-23T00:52:18.609Z,8.27
2022-11-23T00:53:18.565Z,8.23
2022-11-23T00:54:18.594Z,8.26
2022-11-23T00:55:18.548Z,8.20
2022-11-23T00:56:18.589Z,8.20
2022-11-23T00:57:18.529Z,8.20
2022-11-23T00:58:18.543Z,8.23
2022-11-23T00:59:18.525Z,8.20
2022-11-23T01:00:18.515Z,8.23
2022-11-23T01:01:18.536Z,8.24
2022-11-23T01:02:18.520Z,8.23
2022-11-23T01:03:18.465Z,8.24
2022-11-23T01:04:18.487Z,8.26
2022-11-23T01:05:18.439Z,8.24
2022-11-23T01:06:18.472Z,8.23
2022-11-23T01:07:18.462Z,8.20
2022-11-23T01:08:18.435Z,8.20
2022-11-23T01:09:18.415Z,8.18
2022-11-23T01:10:18.411Z,8.18
2022-11-23T01:11:18.380Z,8.15
2022-11-23T01:12:18.403Z,8.15
2022-11-23T01:13:18.370Z,8.15
2022-11-23T01:14:18.410Z,8.19
2022-11-23T01:15:18.336Z,8.18
2022-11-23T01:16:23.832Z,8.16
2022-11-23T01:17:18.327Z,8.20
2022-11-23T01:18:18.381Z,8.20
2022-11-23T01:19:18.293Z,8.26
2022-11-23T01:20:18.309Z,8.24
2022-11-23T01:21:18.274Z,8.23
2022-11-23T01:22:18.283Z,8.23
2022-11-23T01:23:18.252Z,8.23
2022-11-23T01:24:18.281Z,8.24
2022-11-23T01:25:18.233Z,8.23
2022-11-23T01:26:18.250Z,8.23
2022-11-23T01:27:18.210Z,8.26
2022-11-23T01:28:18.222Z,8.26
2022-11-23T01:29:18.206Z,8.20
2022-11-23T01:30:18.232Z,8.19
2022-11-23T01:31:18.209Z,8.13
2022-11-23T01:32:18.188Z,8.18
2022-11-23T01:33:18.151Z,8.16
2022-11-23T01:34:18.175Z,8.16
2022-11-23T01:35:18.143Z,8.16
2022-11-23T01:36:18.144Z,8.16
2022-11-23T01:37:18.106Z,8.12
2022-11-23T01:38:18.653Z,8.18
2022-11-23T01:39:18.082Z,8.13
2022-11-23T01:40:18.121Z,8.12
2022-11-23T01:41:18.151Z,8.09
2022-11-23T01:42:18.227Z,8.08
2022-11-23T01:43:18.037Z,8.06
2022-11-23T01:44:18.060Z,8.09
2022-11-23T01:45:18.016Z,8.03
2022-11-23T01:46:18.046Z,8.06
2022-11-23T01:47:18.009Z,8.03
2022-11-23T01:48:18.017Z,8.08
2022-11-23T01:49:17.987Z,8.08
2022-11-23T01:50:17.991Z,8.10
2022-11-23T01:51:17.984Z,8.16
2022-11-23T01:52:17.966Z,8.16
2022-11-23T01:53:17.938Z,8.12
2022-11-23T01:54:17.948Z,8.15
2022-11-23T01:55:17.932Z,8.10
2022-11-23T01:56:17.939Z,8.12
2022-11-23T01:57:17.903Z,8.08
2022-11-23T01:58:17.907Z,8.12
2022-11-23T01:59:17.880Z,8.10
2022-11-23T02:00:17.897Z,8.18
2022-11-23T02:01:17.963Z,8.19
2022-11-23T02:02:17.931Z,8.19
2022-11-23T02:03:17.830Z,8.18
2022-11-23T02:04:17.839Z,8.18
2022-11-23T02:05:17.845Z,8.15
2022-11-23T02:06:17.829Z,8.18
2022-11-23T02:07:17.861Z,8.19
2022-11-23T02:08:17.817Z,8.18
2022-11-23T02:09:17.776Z,8.20
2022-11-23T02:10:17.779Z,8.18
2022-11-23T02:11:17.750Z,8.19
2022-11-23T02:12:17.767Z,8.16
2022-11-23T02:13:17.747Z,8.18
2022-11-23T02:14:23.096Z,8.15
2022-11-23T02:15:17.732Z,8.13
2022-11-23T02:16:17.717Z,8.12
2022-11-23T02:17:17.680Z,8.12
2022-11-23T02:18:17.732Z,8.13
2022-11-23T02:19:17.689Z,8.10
2022-11-23T02:20:17.671Z,8.16
2022-11-23T02:21:17.646Z,8.12
2022-11-23T02:22:17.649Z,8.13
2022-11-23T02:23:17.628Z,8.12
2022-11-23T02:24:17.656Z,8.10
2022-11-23T02:25:17.615Z,8.09
2022-11-23T02:26:17.608Z,8.03
2022-11-23T02:27:17.585Z,8.09
2022-11-23T02:28:17.588Z,8.03
2022-11-23T02:29:17.557Z,8.01
2022-11-23T02:30:17.595Z,8.00
2022-11-23T02:31:17.537Z,7.94
2022-11-23T02:32:17.546Z,7.95
2022-11-23T02:33:17.531Z,7.98
2022-11-23T02:34:17.531Z,8.00
2022-11-23T02:35:17.512Z,8.00
2022-11-23T02:36:17.548Z,8.03
2022-11-23T02:37:17.473Z,8.00
2022-11-23T02:38:17.495Z,8.00
2022-11-23T02:39:17.449Z,7.97
2022-11-23T02:40:17.462Z,8.00
2022-11-23T02:41:17.470Z,8.00
2022-11-23T02:42:17.439Z,8.01
2022-11-23T02:43:17.418Z,8.05
2022-11-23T02:44:17.421Z,8.08
2022-11-23T02:45:17.388Z,8.03
2022-11-23T02:46:17.440Z,8.06
2022-11-23T02:47:17.451Z,8.08
2022-11-23T02:48:17.378Z,8.12
2022-11-23T02:49:17.341Z,8.13
2022-11-23T02:50:17.388Z,8.15
2022-11-23T02:51:17.324Z,8.13
2022-11-23T02:52:17.350Z,8.16
2022-11-23T02:53:17.310Z,8.13
2022-11-23T02:54:17.317Z,8.13
2022-11-23T02:55:17.280Z,8.16
2022-11-23T02:56:17.307Z,8.13
2022-11-23T02:57:17.273Z,8.13
2022-11-23T02:58:17.274Z,8.08
2022-11-23T02:59:17.241Z,8.09
2022-11-23T03:00:17.265Z,8.09
2022-11-23T03:01:17.243Z,8.09
2022-11-23T03:02:17.230Z,8.10
2022-11-23T03:03:17.227Z,8.10
2022-11-23T03:04:17.208Z,8.10
2022-11-23T03:05:17.184Z,8.12
2022-11-23T03:06:17.206Z,8.16
2022-11-23T03:07:17.176Z,8.18
2022-11-23T03:08:17.184Z,8.15
2022-11-23T03:09:17.137Z,8.15
2022-11-23T03:10:17.145Z,8.15
2022-11-23T03:11:17.111Z,8.15
2022-11-23T03:12:17.142Z,8.18
2022-11-23T03:13:17.093Z,8.16
2022-11-23T03:14:17.116Z,8.18
2022-11-23T03:15:17.072Z,8.23
2022-11-23T03:16:17.097Z,8.19
2022-11-23T03:17:17.074Z,8.19
2022-11-23T03:18:17.035Z,8.24
2022-11-23T03:19:17.085Z,8.24
2022-11-23T03:20:17.015Z,8.26
2022-11-23T03:21:17.040Z,8.19
2022-11-23T03:22:17.005Z,8.16
2022-11-23T03:23:17.008Z,8.16
2022-11-23T03:24:16.985Z,8.15
2022-11-23T03:25:17.006Z,8.13
2022-11-23T03:26:16.963Z,8.19
2022-11-23T03:27:16.977Z,8.16
2022-11-23T03:28:16.933Z,8.18
2022-11-23T03:29:16.955Z,8.24
2022-11-23T03:30:16.949Z,8.20
2022-11-23T03:31:16.924Z,8.24
2022-11-23T03:32:16.912Z,8.20
2022-11-23T03:33:16.919Z,8.19
2022-11-23T03:34:16.874Z,8.15
2022-11-23T03:35:16.891Z,8.12
2022-11-23T03:36:16.869Z,8.18
2022-11-23T03:37:16.867Z,8.23
2022-11-23T03:38:16.834Z,8.20
2022-11-23T03:39:16.841Z,8.20
2022-11-23T03:40:16.832Z,8.24
2022-11-23T03:41:16.853Z,8.24
2022-11-23T03:42:16.784Z,8.24
2022-11-23T03:43:16.825Z,8.23
2022-11-23T03:44:16.778Z,8.19
2022-11-23T03:45:16.776Z,8.13
2022-11-23T03:46:16.748Z,8.18
2022-11-23T03:47:16.765Z,8.20
2022-11-23T03:48:16.718Z,8.19
2022-11-23T03:49:16.749Z,8.15
2022-11-23T03:50:16.698Z,8.18
2022-11-23T03:51:16.713Z,8.16
2022-11-23T03:52:16.711Z,8.15
2022-11-23T03:53:16.692Z,8.18
2022-11-23T03:54:16.659Z,8.16
2022-11-23T03:55:16.668Z,8.18
2022-11-23T03:56:16.659Z,8.18
2022-11-23T03:57:16.647Z,8.18
2022-11-23T03:58:16.643Z,8.18
2022-11-23T03:59:16.630Z,8.15
2022-11-23T04:00:16.602Z,8.16
2022-11-23T04:01:16.715Z,8.16
2022-11-23T04:02:16.576Z,8.18
2022-11-23T04:03:16.600Z,8.13
2022-11-23T04:04:16.588Z,8.12
2022-11-23T04:05:16.563Z,8.10
2022-11-23T04:06:16.538Z,8.09
2022-11-23T04:07:16.642Z,8.03
2022-11-23T04:08:16.514Z,8.05
2022-11-23T04:09:16.532Z,8.05
2022-11-23T04:10:16.500Z,8.03
2022-11-23T04:11:16.503Z,8.05
2022-11-23T04:12:16.466Z,8.05
2022-11-23T04:13:16.511Z,8.01
2022-11-23T04:14:16.465Z,8.00
2022-11-23T04:15:16.460Z,8.00
2022-11-23T04:16:16.421Z,8.00
2022-11-23T04:17:16.458Z,7.91
2022-11-23T04:18:16.422Z,7.91
2022-11-23T04:19:16.417Z,7.85
2022-11-23T04:20:16.411Z,7.80
2022-11-23T04:21:16.407Z,7.82
2022-11-23T04:22:16.363Z,7.77
2022-11-23T04:23:16.388Z,7.77
2022-11-23T04:24:16.339Z,7.73
2022-11-23T04:25:16.376Z,7.72
2022-11-23T04:26:16.337Z,7.72
2022-11-23T04:27:16.344Z,7.70
2022-11-23T04:28:16.297Z,7.69
2022-11-23T04:29:16.312Z,7.63
2022-11-23T04:30:16.303Z,7.63
2022-11-23T04:31:16.308Z,7.61
2022-11-23T04:32:16.273Z,7.56
2022-11-23T04:33:16.264Z,7.53
2022-11-23T04:34:16.247Z,7.48
2022-11-23T04:35:16.246Z,7.45
2022-11-23T04:36:16.232Z,7.48
2022-11-23T04:37:16.233Z,7.45
2022-11-23T04:38:16.191Z,7.43
2022-11-23T04:39:16.202Z,7.45
2022-11-23T04:40:16.189Z,7.42
2022-11-23T04:41:16.185Z,7.39
2022-11-23T04:42:16.169Z,7.36
2022-11-23T04:43:16.161Z,7.36
2022-11-23T04:44:16.126Z,7.35
2022-11-23T04:45:16.139Z,7.35
2022-11-23T04:46:16.121Z,7.32
2022-11-23T04:47:16.183Z,7.32
2022-11-23T04:48:16.094Z,7.32
2022-11-23T04:49:16.098Z,7.32
2022-11-23T04:50:16.079Z,7.32
2022-11-23T04:51:16.080Z,7.28
2022-11-23T04:52:16.042Z,7.31
2022-11-23T04:53:16.084Z,7.33
2022-11-23T04:54:16.029Z,7.33
2022-11-23T04:55:16.035Z,7.33
2022-11-23T04:56:16.021Z,7.33
2022-11-23T04:57:16.011Z,7.29
2022-11-23T04:58:16.005Z,7.33
2022-11-23T04:59:15.996Z,7.33
2022-11-23T05:00:15.964Z,7.36
2022-11-23T05:01:16.068Z,7.36
2022-11-23T05:02:15.937Z,7.36
2022-11-23T05:03:15.955Z,7.35
2022-11-23T05:04:17.956Z,7.36
2022-11-23T05:05:15.929Z,7.38
2022-11-23T05:06:15.896Z,7.38
2022-11-23T05:07:15.982Z,7.38
2022-11-23T05:08:15.879Z,7.36
2022-11-23T05:09:15.911Z,7.32
2022-11-23T05:10:15.850Z,7.33
2022-11-23T05:11:15.866Z,7.31
2022-11-23T05:12:15.833Z,7.29
2022-11-23T05:13:15.841Z,7.29
2022-11-23T05:14:15.815Z,7.24
2022-11-23T05:15:15.844Z,7.25
2022-11-23T05:16:15.791Z,7.28
2022-11-23T05:17:15.800Z,7.24
2022-11-23T05:18:15.770Z,7.32
2022-11-23T05:19:15.785Z,7.32
2022-11-23T05:20:15.777Z,7.32
2022-11-23T05:21:15.766Z,7.29
2022-11-23T05:22:15.732Z,7.31
2022-11-23T05:23:15.738Z,7.31
2022-11-23T05:24:15.706Z,7.33
2022-11-23T05:25:15.721Z,7.36
2022-11-23T05:26:15.707Z,7.33
2022-11-23T05:27:15.715Z,7.31
2022-11-23T05:28:38.473Z,7.29
2022-11-23T05:29:15.685Z,7.31
2022-11-23T05:30:15.648Z,7.28
2022-11-23T05:31:15.689Z,7.35
2022-11-23T05:32:15.627Z,7.32
2022-11-23T05:33:15.673Z,7.33
2022-11-23T05:34:15.634Z,7.33
2022-11-23T05:35:15.613Z,7.36
2022-11-23T05:36:15.586Z,7.36
2022-11-23T05:37:15.608Z,7.33
2022-11-23T05:38:15.561Z,7.32
2022-11-23T05:39:15.569Z,7.35
2022-11-23T05:40:15.541Z,7.35
2022-11-23T05:41:15.551Z,7.35
2022-11-23T05:42:15.531Z,7.32
2022-11-23T05:43:15.527Z,7.25
2022-11-23T05:44:15.504Z,7.18
2022-11-23T05:45:15.541Z,7.15
2022-11-23T05:46:15.475Z,7.11
2022-11-23T05:47:15.499Z,7.07
2022-11-23T05:48:15.459Z,7.02
2022-11-23T05:49:15.481Z,6.97
2022-11-23T05:50:15.441Z,6.97
2022-11-23T05:51:15.442Z,6.97
2022-11-23T05:52:15.424Z,6.96
2022-11-23T05:53:15.444Z,6.92
2022-11-23T05:54:15.389Z,6.85
2022-11-23T05:55:15.407Z,6.87
2022-11-23T05:56:15.374Z,6.82
2022-11-23T05:57:15.398Z,6.79
2022-11-23T05:58:15.358Z,6.78
2022-11-23T05:59:15.414Z,6.75
2022-11-23T06:00:15.322Z,6.81
2022-11-23T06:01:15.337Z,6.77
2022-11-23T06:02:15.318Z,6.77
2022-11-23T06:03:15.338Z,6.75
2022-11-23T06:04:15.397Z,6.74
2022-11-23T06:05:15.294Z,6.72
2022-11-23T06:06:15.292Z,6.69
2022-11-23T06:07:15.366Z,6.70
2022-11-23T06:08:15.253Z,6.69
2022-11-23T06:09:15.258Z,6.67
2022-11-23T06:10:15.232Z,6.70
2022-11-23T06:11:15.229Z,6.75
2022-11-23T06:12:15.207Z,6.78
2022-11-23T06:13:15.213Z,6.81
2022-11-23T06:14:15.179Z,6.82
2022-11-23T06:15:15.239Z,6.78
2022-11-23T06:16:15.157Z,6.78
2022-11-23T06:17:15.169Z,6.75
2022-11-23T06:18:15.135Z,6.72
2022-11-23T06:19:15.152Z,6.66
2022-11-23T06:20:15.140Z,6.64
2022-11-23T06:21:15.155Z,6.70
2022-11-23T06:22:15.094Z,6.77
2022-11-23T06:23:15.109Z,6.75
2022-11-23T06:24:15.089Z,6.74
2022-11-23T06:25:15.083Z,6.75
2022-11-23T06:26:15.072Z,6.77
2022-11-23T06:27:17.968Z,6.74
2022-11-23T06:28:15.030Z,6.69
2022-11-23T06:29:15.042Z,6.63
2022-11-23T06:30:15.017Z,6.62
2022-11-23T06:31:15.034Z,6.63
2022-11-23T06:32:15.006Z,6.63
2022-11-23T06:33:15.013Z,6.62
2022-11-23T06:34:14.972Z,6.63
2022-11-23T06:35:14.978Z,6.63
2022-11-23T06:36:14.958Z,6.62
2022-11-23T06:37:14.976Z,6.59
2022-11-23T06:38:14.929Z,6.62
2022-11-23T06:39:14.944Z,6.59
2022-11-23T06:40:14.907Z,6.60
2022-11-23T06:41:14.921Z,6.60
2022-11-23T06:42:37.820Z,6.56
2022-11-23T06:43:14.912Z,6.57
2022-11-23T06:44:14.870Z,6.52
2022-11-23T06:45:14.882Z,6.60
2022-11-23T06:46:14.842Z,6.62
2022-11-23T06:47:17.714Z,6.62
2022-11-23T06:48:14.848Z,6.70
2022-11-23T06:49:14.847Z,6.75
2022-11-23T06:50:14.808Z,6.84
2022-11-23T06:51:14.819Z,6.87
2022-11-23T06:52:14.785Z,6.92
2022-11-23T06:53:14.794Z,6.97
2022-11-23T06:54:14.854Z,6.95
2022-11-23T06:55:14.770Z,6.99
2022-11-23T06:56:14.744Z,6.96
2022-11-23T06:57:14.752Z,7.00
2022-11-23T06:58:14.718Z,7.05
2022-11-23T06:59:14.753Z,7.07
2022-11-23T07:00:14.702Z,7.17
2022-11-23T07:01:14.751Z,7.18
2022-11-23T07:02:14.683Z,7.15
2022-11-23T07:03:14.706Z,7.13
2022-11-23T07:04:14.665Z,7.14
2022-11-23T07:05:14.676Z,7.18
2022-11-23T07:06:14.633Z,7.17
2022-11-23T07:07:14.736Z,7.17
2022-11-23T07:08:14.612Z,7.18
2022-11-23T07:09:14.624Z,7.17
2022-11-23T07:10:14.661Z,7.15
2022-11-23T07:11:14.603Z,7.21
2022-11-23T07:12:14.569Z,7.25
2022-11-23T07:13:14.585Z,7.28
2022-11-23T07:14:14.547Z,7.32
2022-11-23T07:15:14.565Z,7.36
2022-11-23T07:16:14.537Z,7.36
2022-11-23T07:17:17.414Z,7.36
2022-11-23T07:18:14.508Z,7.36
2022-11-23T07:19:14.519Z,7.33
2022-11-23T07:20:14.492Z,7.28
2022-11-23T07:21:14.658Z,7.29
2022-11-23T07:22:14.468Z,7.23
2022-11-23T07:23:14.489Z,7.28
2022-11-23T07:24:14.443Z,7.29
2022-11-23T07:25:14.457Z,7.31
2022-11-23T07:26:14.428Z,7.31
2022-11-23T07:27:14.450Z,7.35
2022-11-23T07:28:14.418Z,7.42
2022-11-23T07:29:14.418Z,7.54
2022-11-23T07:30:14.392Z,7.58
2022-11-23T07:31:14.448Z,7.63
2022-11-23T07:32:14.376Z,7.69
2022-11-23T07:33:14.360Z,7.63
2022-11-23T07:34:14.358Z,7.63
2022-11-23T07:35:14.324Z,7.66
2022-11-23T07:36:14.338Z,7.70
2022-11-23T07:37:14.307Z,7.72
2022-11-23T07:38:14.332Z,7.75
2022-11-23T07:39:14.295Z,7.79
2022-11-23T07:40:14.291Z,7.82
2022-11-23T07:41:14.266Z,7.88
2022-11-23T07:43:14.266Z,7.90
2022-11-23T07:44:14.256Z,7.93
2022-11-23T07:45:14.223Z,7.95
2022-11-23T07:46:14.239Z,7.97
2022-11-23T07:47:14.202Z,8.01
2022-11-23T07:48:14.215Z,7.98
2022-11-23T07:49:14.202Z,8.00
2022-11-23T07:50:14.194Z,7.97
2022-11-23T07:51:14.159Z,7.94
2022-11-23T07:52:14.171Z,7.93
2022-11-23T07:53:14.145Z,7.91
2022-11-23T07:54:14.190Z,7.93
2022-11-23T07:55:14.116Z,7.93
2022-11-23T07:56:14.132Z,7.93
2022-11-23T07:57:14.102Z,7.93
2022-11-23T07:58:14.111Z,7.91
2022-11-23T07:59:14.085Z,7.93
2022-11-23T08:00:14.106Z,7.98
2022-11-23T08:01:14.076Z,8.00
2022-11-23T08:02:14.133Z,8.05
2022-11-23T08:03:30.103Z,8.12
2022-11-23T08:04:14.058Z,8.09
2022-11-23T08:05:14.466Z,8.15
2022-11-23T08:06:14.021Z,8.13
2022-11-23T08:07:14.016Z,8.16
2022-11-23T08:08:14.004Z,8.23
2022-11-23T08:09:13.973Z,8.24
2022-11-23T08:10:13.979Z,8.30
2022-11-23T08:11:13.973Z,8.44
2022-11-23T08:12:13.959Z,8.45
2022-11-23T08:13:13.935Z,8.44
2022-11-23T08:14:13.941Z,8.46
2022-11-23T08:15:13.905Z,8.51
2022-11-23T08:16:13.940Z,8.53
2022-11-23T08:17:13.881Z,8.56
2022-11-23T08:18:13.924Z,8.61
2022-11-23T08:19:13.862Z,8.64
2022-11-23T08:20:13.877Z,8.81
2022-11-23T08:21:13.841Z,8.94
2022-11-23T08:22:15.880Z,9.03
2022-11-23T08:23:13.826Z,9.11
2022-11-23T08:24:13.839Z,9.22
2022-11-23T08:25:13.797Z,9.26
2022-11-23T08:26:14.148Z,9.19
2022-11-23T08:27:13.814Z,9.14
2022-11-23T08:28:13.797Z,9.18
2022-11-23T08:29:13.769Z,9.28
2022-11-23T08:30:13.772Z,9.36
2022-11-23T08:31:13.738Z,9.50
2022-11-23T08:32:13.758Z,9.69
2022-11-23T08:33:13.725Z,9.84
2022-11-23T08:34:13.726Z,9.99
2022-11-23T08:35:13.701Z,10.15
2022-11-23T08:36:13.703Z,10.19
2022-11-23T08:37:13.700Z,10.05
2022-11-23T08:38:13.696Z,10.05
2022-11-23T08:39:13.654Z,10.10
2022-11-23T08:40:13.665Z,10.17
2022-11-23T08:41:13.626Z,10.09
2022-11-23T08:42:13.642Z,9.97
2022-11-23T08:43:13.625Z,9.76
2022-11-23T08:44:13.638Z,9.61
2022-11-23T08:45:13.592Z,9.46
2022-11-23T08:46:13.608Z,9.46
2022-11-23T08:47:13.568Z,9.41
2022-11-23T08:48:13.573Z,9.36
2022-11-23T08:49:13.575Z,9.31
2022-11-23T08:50:13.599Z,9.32
2022-11-23T08:51:13.529Z,9.31
2022-11-23T08:52:13.543Z,9.29
2022-11-23T08:53:13.506Z,9.32
2022-11-23T08:54:13.513Z,9.29
2022-11-23T08:55:13.491Z,9.31
2022-11-23T08:56:13.486Z,9.23
2022-11-23T08:57:13.459Z,9.22
2022-11-23T08:58:13.748Z,9.19
2022-11-23T08:59:13.437Z,9.16
2022-11-23T09:00:13.475Z,9.11
2022-11-23T09:01:13.470Z,9.06
2022-11-23T09:02:13.437Z,9.06
2022-11-23T09:03:13.392Z,9.02
2022-11-23T09:04:19.199Z,9.04
2022-11-23T09:05:13.398Z,9.04
2022-11-23T09:06:13.396Z,9.04
2022-11-23T09:07:13.430Z,9.06
2022-11-23T09:08:13.364Z,9.03
2022-11-23T09:09:13.342Z,9.06
2022-11-23T09:10:17.906Z,9.08
2022-11-23T09:11:13.331Z,9.08
2022-11-23T09:12:13.328Z,9.03
2022-11-23T09:13:13.286Z,9.02
2022-11-23T09:14:13.298Z,9.03
2022-11-23T09:15:13.276Z,9.03
2022-11-23T09:16:13.280Z,9.06
2022-11-23T09:17:13.260Z,9.03
2022-11-23T09:18:13.262Z,9.06
2022-11-23T09:19:13.238Z,9.11
2022-11-23T09:20:13.237Z,9.13
2022-11-23T09:21:13.209Z,9.13
2022-11-23T09:22:13.272Z,9.08
2022-11-23T09:23:14.475Z,9.10
2022-11-23T09:24:13.279Z,9.06
2022-11-23T09:25:13.165Z,9.03
2022-11-23T09:26:13.186Z,8.99
2022-11-23T09:27:13.138Z,9.02
2022-11-23T09:28:13.171Z,9.02
2022-11-23T09:29:13.135Z,9.03
2022-11-23T09:30:13.135Z,9.06
2022-11-23T09:31:13.100Z,9.10
2022-11-23T09:32:13.106Z,9.14
2022-11-23T09:33:13.104Z,9.11
2022-11-23T09:34:13.083Z,9.13
2022-11-23T09:35:13.053Z,9.13
2022-11-23T09:36:13.067Z,9.14
2022-11-23T09:37:13.039Z,9.14
2022-11-23T09:38:13.043Z,9.14
2022-11-23T09:39:13.029Z,9.18
2022-11-23T09:40:13.052Z,9.16
2022-11-23T09:41:12.996Z,9.18
2022-11-23T09:42:13.006Z,9.19
2022-11-23T09:43:12.981Z,9.22
2022-11-23T09:44:13.021Z,9.21
2022-11-23T09:45:12.950Z,9.25
2022-11-23T09:46:12.958Z,9.29
2022-11-23T09:47:12.932Z,9.32
2022-11-23T09:48:12.958Z,9.37
2022-11-23T09:49:12.903Z,9.41
2022-11-23T09:50:12.937Z,9.41
2022-11-23T09:51:12.886Z,9.46
2022-11-23T09:52:12.900Z,9.48
2022-11-23T09:53:12.860Z,9.48
2022-11-23T09:54:12.882Z,9.46
2022-11-23T09:55:12.861Z,9.48
2022-11-23T09:56:12.866Z,9.55
2022-11-23T09:57:12.833Z,9.56
2022-11-23T09:58:12.833Z,9.62
2022-11-23T09:59:12.809Z,9.64
2022-11-23T10:00:12.813Z,9.66
2022-11-23T10:01:12.867Z,9.66
2022-11-23T10:02:12.817Z,9.68
2022-11-23T10:03:12.766Z,9.65
2022-11-23T10:04:12.772Z,9.69
2022-11-23T10:05:12.737Z,9.74
2022-11-23T10:06:12.779Z,9.80
2022-11-23T10:07:12.763Z,9.83
2022-11-23T10:08:12.728Z,9.86
2022-11-23T10:09:12.691Z,9.84
2022-11-23T10:10:12.711Z,9.86
2022-11-23T10:11:12.673Z,9.87
2022-11-23T10:12:12.719Z,9.87
2022-11-23T10:13:12.653Z,9.89
2022-11-23T10:14:12.670Z,9.91
2022-11-23T10:15:12.630Z,9.92
2022-11-23T10:16:12.653Z,9.89
2022-11-23T10:17:12.656Z,9.86
2022-11-23T10:18:12.623Z,9.86
2022-11-23T10:19:12.613Z,9.86
2022-11-23T10:20:12.699Z,9.89
2022-11-23T10:21:12.571Z,9.86
2022-11-23T10:22:12.583Z,9.84
2022-11-23T10:23:12.568Z,9.83
2022-11-23T10:24:12.575Z,9.87
2022-11-23T10:25:12.526Z,9.91
2022-11-23T10:26:12.556Z,9.92
2022-11-23T10:27:12.512Z,9.89
2022-11-23T10:28:12.545Z,9.89
2022-11-23T10:29:12.480Z,9.91
2022-11-23T10:30:12.513Z,9.89
2022-11-23T10:31:12.462Z,9.87
2022-11-23T10:32:12.470Z,9.86
2022-11-23T10:33:12.442Z,9.87
2022-11-23T10:34:12.477Z,9.87
2022-11-23T10:35:12.418Z,9.87
2022-11-23T10:36:12.429Z,9.87
2022-11-23T10:37:12.395Z,9.87
2022-11-23T10:38:18.395Z,9.92
2022-11-23T10:39:12.414Z,9.91
2022-11-23T10:40:12.386Z,9.92
2022-11-23T10:41:12.360Z,9.94
2022-11-23T10:42:12.368Z,10.01
2022-11-23T10:43:12.332Z,10.04
2022-11-23T10:44:12.347Z,10.07
2022-11-23T10:45:12.334Z,10.05
2022-11-23T10:46:12.331Z,10.09
2022-11-23T10:47:12.291Z,10.15
2022-11-23T10:48:12.299Z,10.23
2022-11-23T10:49:12.267Z,10.53
2022-11-23T10:50:12.326Z,10.96
2022-11-23T10:51:12.262Z,11.26
2022-11-23T10:52:12.265Z,11.59
2022-11-23T10:53:12.243Z,11.84
2022-11-23T10:54:12.248Z,11.97
2022-11-23T10:55:12.215Z,12.15
2022-11-23T10:56:12.234Z,12.15
2022-11-23T10:57:12.192Z,12.22
2022-11-23T10:58:12.203Z,11.94
2022-11-23T10:59:12.172Z,12.07
2022-11-23T11:00:12.188Z,12.31
2022-11-23T11:01:12.191Z,12.18
2022-11-23T11:02:12.157Z,12.55
2022-11-23T11:03:12.129Z,12.76
2022-11-23T11:04:12.147Z,12.85
2022-11-23T11:05:12.096Z,12.57
2022-11-23T11:06:12.108Z,12.40
2022-11-23T11:07:12.205Z,12.35
2022-11-23T11:08:12.102Z,12.62
2022-11-23T11:09:13.589Z,12.75
2022-11-23T11:10:12.066Z,12.87
2022-11-23T11:11:12.041Z,12.82
2022-11-23T11:12:12.060Z,12.43
2022-11-23T11:13:12.058Z,12.65
2022-11-23T11:14:12.029Z,12.42
2022-11-23T11:15:12.447Z,12.36
2022-11-23T11:16:12.021Z,12.29
2022-11-23T11:17:12.005Z,12.35
2022-11-23T11:18:11.995Z,12.20
2022-11-23T11:19:11.950Z,12.06
2022-11-23T11:20:11.961Z,12.09
2022-11-23T11:21:11.934Z,11.65
2022-11-23T11:22:11.973Z,11.25
2022-11-23T11:23:11.923Z,10.90
2022-11-23T11:24:11.935Z,10.89
2022-11-23T11:25:11.897Z,10.89
2022-11-23T11:26:11.912Z,10.79
2022-11-23T11:27:11.881Z,10.67
2022-11-23T11:28:11.875Z,10.60
2022-11-23T11:29:11.852Z,10.51
2022-11-23T11:30:11.855Z,10.42
2022-11-23T11:31:11.882Z,10.42
2022-11-23T11:32:11.826Z,10.51
2022-11-23T11:33:11.809Z,10.49
2022-11-23T11:34:11.832Z,10.37
2022-11-23T11:35:14.901Z,10.40
2022-11-23T11:36:11.801Z,10.33
2022-11-23T11:37:11.763Z,10.28
2022-11-23T11:38:11.766Z,10.20
2022-11-23T11:39:19.727Z,10.22
2022-11-23T11:40:11.775Z,10.41
2022-11-23T11:41:11.721Z,10.41
2022-11-23T11:42:11.732Z,10.28
2022-11-23T11:43:11.692Z,10.25
2022-11-23T11:44:11.710Z,10.31
2022-11-23T11:45:11.693Z,10.34
2022-11-23T11:47:11.655Z,10.68
2022-11-23T11:48:11.659Z,10.63
2022-11-23T11:49:11.660Z,10.93
2022-11-23T11:50:11.714Z,11.10
2022-11-23T11:51:11.641Z,11.07
2022-11-23T11:52:11.603Z,11.05
2022-11-23T11:53:11.635Z,11.11
2022-11-23T11:54:11.636Z,11.07
2022-11-23T11:55:11.633Z,11.00
2022-11-23T11:56:11.573Z,11.05
2022-11-23T11:57:11.564Z,11.12
2022-11-23T11:58:11.573Z,11.10
2022-11-23T11:59:11.548Z,11.10
2022-11-23T12:00:11.618Z,11.19
2022-11-23T12:01:11.543Z,11.14
2022-11-23T12:02:11.499Z,11.15
2022-11-23T12:03:11.532Z,11.11
2022-11-23T12:04:11.521Z,11.25
2022-11-23T12:05:11.488Z,11.33
2022-11-23T12:06:11.450Z,11.33
2022-11-23T12:07:11.494Z,11.30
2022-11-23T12:08:11.431Z,11.33
2022-11-23T12:09:11.444Z,11.37
2022-11-23T12:10:11.452Z,11.52
2022-11-23T12:11:11.440Z,11.47
2022-11-23T12:12:11.385Z,11.51
2022-11-23T12:13:11.413Z,11.50
2022-11-23T12:14:11.365Z,11.51
2022-11-23T12:15:33.254Z,11.47
2022-11-23T12:16:11.349Z,11.55
2022-11-23T12:17:32.073Z,11.63
2022-11-23T12:18:11.906Z,11.73
2022-11-23T12:19:11.330Z,11.87
2022-11-23T12:20:11.301Z,11.97
2022-11-23T12:21:11.348Z,12.04
2022-11-23T12:22:11.325Z,12.00
2022-11-23T12:23:11.304Z,11.73
2022-11-23T12:24:11.285Z,11.62
2022-11-23T12:25:11.266Z,11.60
2022-11-23T12:26:11.234Z,11.70
2022-11-23T12:27:11.245Z,11.69
2022-11-23T12:28:11.243Z,11.70
2022-11-23T12:29:11.253Z,11.87
2022-11-23T12:30:11.330Z,11.87
2022-11-23T12:31:11.285Z,11.84
2022-11-23T12:32:11.178Z,11.75
2022-11-23T12:33:11.186Z,11.65
2022-11-23T12:34:11.160Z,11.70
2022-11-23T12:35:11.196Z,11.80
2022-11-23T12:36:11.149Z,11.99
2022-11-23T12:37:11.145Z,12.28
2022-11-23T12:38:11.113Z,12.39
2022-11-23T12:39:11.124Z,12.24
2022-11-23T12:40:11.129Z,12.24
2022-11-23T12:41:11.111Z,12.15
2022-11-23T12:42:11.060Z,12.09
2022-11-23T12:43:11.077Z,12.10
2022-11-23T12:44:11.039Z,12.12
2022-11-23T12:45:11.059Z,12.06
2022-11-23T12:46:11.030Z,11.90
2022-11-23T12:47:11.034Z,11.81
2022-11-23T12:48:11.000Z,11.80
2022-11-23T12:49:11.028Z,11.70
2022-11-23T12:50:10.980Z,11.55
2022-11-23T12:51:11.036Z,11.48
2022-11-23T12:52:10.969Z,11.51
2022-11-23T12:53:10.990Z,11.51
2022-11-23T12:54:11.034Z,11.55
2022-11-23T12:55:15.031Z,11.54
2022-11-23T12:56:10.955Z,11.48
2022-11-23T12:57:10.987Z,11.29
2022-11-23T12:58:10.898Z,11.27
2022-11-23T12:59:10.905Z,11.22
2022-11-23T13:00:10.880Z,11.22
2022-11-23T13:01:10.951Z,11.18
2022-11-23T13:02:10.959Z,11.08
2022-11-23T13:03:10.862Z,10.93
2022-11-23T13:04:10.881Z,10.79
2022-11-23T13:05:10.842Z,10.81
2022-11-23T13:06:10.817Z,10.79
2022-11-23T13:08:10.847Z,10.72
2022-11-23T13:09:10.784Z,10.74
2022-11-23T13:10:10.771Z,10.74
2022-11-23T13:11:10.778Z,10.71
2022-11-23T13:12:10.746Z,10.67
2022-11-23T13:13:15.707Z,10.64
2022-11-23T13:14:10.730Z,10.71
2022-11-23T13:15:10.735Z,10.71
2022-11-23T13:16:12.307Z,10.71